Svitzer Viana — CSZG3 — position and weather

sailwx.info

Track history (hours):
 
Tides and Currents Weather Stations Pressure Air Temp Water Temp Dewpoint Dewpoint Depression Visibility Wind Speed Wind Dir Waves Ship Positions

Svitzer Viana

Last reported at 2017-Nov-20 00:25 UTC. Time now 2017-Nov-22 11:18 UTC.
Position N 38°42' W 009°10'.

Length 28 m; draft 3.8 m.

Type: Tug. MMSI: 263602568.

Date/timePositionNaut miles runAvg speedWind from/ knotsBaromVisibWave heightAir tempDewpointWater temp
2017-Nov-20 00:25N 38°42' W 009°10'0 0.0
2017-Nov-19 23:58N 38°42' W 009°10'0 0.0
2017-Nov-19 23:25N 38°42' W 009°10'0 0.0
2017-Nov-19 22:58N 38°42' W 009°10'0 0.0
2017-Nov-19 22:25N 38°42' W 009°10'0 0.0
2017-Nov-19 21:58N 38°42' W 009°10'0 0.0
2017-Nov-19 20:46N 38°42' W 009°10'0 0.6
2017-Nov-19 19:53N 38°42' W 009°10'0 0.4
2017-Nov-19 18:37N 38°42' W 009°10'0 0.0
2017-Nov-19 16:01N 38°42' W 009°10'0 0.0
2017-Nov-19 14:10N 38°42' W 009°10'0 0.0
2017-Nov-19 13:13N 38°42' W 009°10'0 0.0
2017-Nov-19 12:55N 38°42' W 009°10'0 0.0
2017-Nov-19 12:25N 38°42' W 009°10'0 0.0
2017-Nov-19 11:55N 38°42' W 009°10'0 0.0
2017-Nov-19 11:11N 38°42' W 009°10'1 7.9
2017-Nov-19 11:00N 38°41' W 009°08'3 6.5
2017-Nov-19 10:30N 38°41' W 009°04'0 0.6
2017-Nov-19 10:00N 38°41' W 009°04'4 7.6
2017-Nov-19 09:26N 38°42' W 009°10'0 0.0
2017-Nov-19 07:23N 38°42' W 009°10'0 0.0
2017-Nov-19 06:56N 38°42' W 009°10'0 0.0
2017-Nov-19 05:44N 38°42' W 009°10'0 0.0
2017-Nov-19 04:53N 38°42' W 009°10'0 0.0
2017-Nov-19 04:29N 38°42' W 009°10'0 0.0
2017-Nov-19 03:47N 38°42' W 009°10'0 0.0
2017-Nov-19 03:14N 38°42' W 009°10'0 0.0
2017-Nov-19 02:56N 38°42' W 009°10'0 0.0
2017-Nov-19 02:20N 38°42' W 009°10'0 0.0
2017-Nov-19 01:50N 38°42' W 009°10'0 0.0
2017-Nov-19 01:14N 38°42' W 009°10'0 0.0
2017-Nov-19 00:59N 38°42' W 009°10'0 0.0
2017-Nov-19 00:29N 38°42' W 009°10'0 0.0
2017-Nov-18 23:56N 38°42' W 009°10'0 0.0
2017-Nov-18 23:14N 38°42' W 009°10'0 0.0
2017-Nov-18 22:56N 38°42' W 009°10'0 0.0
2017-Nov-18 22:08N 38°42' W 009°10'0 0.0
2017-Nov-18 21:59N 38°42' W 009°10'0 0.0
2017-Nov-18 21:26N 38°42' W 009°10'0 0.0
2017-Nov-18 20:53N 38°42' W 009°10'0 0.0
2017-Nov-18 20:20N 38°42' W 009°10'0 0.0
2017-Nov-18 18:20N 38°42' W 009°10'0 0.0
2017-Nov-18 17:50N 38°42' W 009°10'0 0.0
2017-Nov-18 16:53N 38°42' W 009°10'0 0.0
2017-Nov-18 16:29N 38°42' W 009°10'0 0.0
2017-Nov-18 15:54N 38°42' W 009°10'2 1.5
2017-Nov-18 14:40N 38°41' W 009°11'0 1.2
2017-Nov-18 14:21N 38°41' W 009°11'0 0.1
2017-Nov-18 13:58N 38°41' W 009°11'2 1.6
2017-Nov-18 12:53N 38°42' W 009°10'0 0.0
2017-Nov-18 12:29N 38°42' W 009°10'0 0.0
2017-Nov-18 11:35N 38°42' W 009°10'0 0.0
2017-Nov-18 11:05N 38°42' W 009°10'0 0.0
2017-Nov-18 10:59N 38°42' W 009°10'0 0.0
2017-Nov-18 10:17N 38°42' W 009°10'0 0.0
2017-Nov-18 09:56N 38°42' W 009°10'0 0.0
2017-Nov-18 09:23N 38°42' W 009°10'0 0.0
2017-Nov-18 08:59N 38°42' W 009°10'0 0.0
2017-Nov-18 08:29N 38°42' W 009°10'0 0.0
2017-Nov-18 07:59N 38°42' W 009°10'0 0.0
2017-Nov-18 07:23N 38°42' W 009°10'0 0.0
2017-Nov-18 06:59N 38°42' W 009°10'0 0.0
2017-Nov-18 06:14N 38°42' W 009°10'0 0.0
2017-Nov-18 05:53N 38°42' W 009°10'0 0.0
2017-Nov-18 05:20N 38°42' W 009°10'0 0.0
2017-Nov-18 04:53N 38°42' W 009°10'0 0.0
2017-Nov-18 04:23N 38°42' W 009°10'0 0.0
2017-Nov-18 03:41N 38°42' W 009°10'2 9.9
2017-Nov-18 03:30N 38°41' W 009°08'3 4.7
2017-Nov-18 02:49N 38°41' W 009°04'0 0.4
2017-Nov-18 02:30N 38°41' W 009°04'2 4.1
2017-Nov-18 02:00N 38°41' W 009°06'3 4.3
2017-Nov-18 01:24N 38°42' W 009°09'0 0.6
2017-Nov-18 00:54N 38°42' W 009°10'0 0.0
2017-Nov-17 20:36N 38°42' W 009°10'0 0.0
2017-Nov-17 19:06N 38°42' W 009°10'0 0.0
2017-Nov-17 18:48N 38°42' W 009°10'0 0.0
2017-Nov-17 18:18N 38°42' W 009°10'0 0.0
2017-Nov-17 17:48N 38°42' W 009°10'0 0.0
2017-Nov-17 17:06N 38°42' W 009°10'0 0.0
2017-Nov-17 17:00N 38°42' W 009°10'0 0.0
2017-Nov-17 15:42N 38°42' W 009°10'0 0.0
2017-Nov-17 13:54N 38°42' W 009°10'0 0.0
2017-Nov-17 08:48N 38°42' W 009°10'0 0.0
2017-Nov-17 07:24N 38°42' W 009°10'0 0.2
2017-Nov-17 06:56N 38°42' W 009°09'3 5.7
2017-Nov-17 06:28N 38°43' W 009°07'1 1.3
2017-Nov-17 05:56N 38°43' W 009°07'1 3.0
2017-Nov-17 05:29N 38°42' W 009°09'1 0.2
2017-Nov-17 00:42N 38°42' W 009°10'2 8.5
2017-Nov-17 00:30N 38°41' W 009°11'0 0.3
2017-Nov-16 23:55N 38°41' W 009°11'2 0.6
2017-Nov-16 20:48N 38°42' W 009°10'0 0.0
2017-Nov-16 20:18N 38°42' W 009°10'0 0.0
2017-Nov-16 18:54N 38°42' W 009°10'0 0.0
2017-Nov-16 16:15N 38°42' W 009°10'0 0.0
2017-Nov-16 15:48N 38°42' W 009°10'0 0.0
2017-Nov-16 15:00N 38°42' W 009°10'0 0.0
2017-Nov-16 13:54N 38°42' W 009°10'0 0.0
2017-Nov-16 13:21N 38°42' W 009°10'2 6.9
2017-Nov-16 13:00N 38°43' W 009°07'0 0.9
2017-Nov-16 12:29N 38°43' W 009°06'2 3.5
2017-Nov-16 12:00N 38°42' W 009°08'1 0.3
2017-Nov-16 08:18N 38°42' W 009°10'0 0.0
2017-Nov-16 06:36N 38°42' W 009°10'0 0.1
2017-Nov-16 06:30N 38°42' W 009°10'0 0.0
2017-Nov-16 05:48N 38°42' W 009°10'0 0.0
2017-Nov-16 04:48N 38°42' W 009°10'0 0.0
2017-Nov-16 04:21N 38°42' W 009°10'0 0.0
2017-Nov-16 03:54N 38°42' W 009°10'0 0.0
2017-Nov-16 03:21N 38°42' W 009°10'0 0.0
2017-Nov-16 03:00N 38°42' W 009°10'0 0.0
2017-Nov-16 01:12N 38°42' W 009°10'0 0.0
2017-Nov-16 01:00N 38°42' W 009°10'0 0.0
2017-Nov-15 19:30N 38°42' W 009°10'0 0.0
2017-Nov-15 13:42N 38°42' W 009°10'0 0.0
2017-Nov-15 13:24N 38°42' W 009°10'0 0.4
2017-Nov-15 12:55N 38°42' W 009°10'2 3.8
2017-Nov-15 12:17N 38°41' W 009°12'0 0.4
2017-Nov-15 11:58N 38°41' W 009°12'2 4.4
2017-Nov-15 11:29N 38°42' W 009°10'0 0.7
2017-Nov-15 10:58N 38°42' W 009°10'0 0.3
2017-Nov-15 09:39N 38°42' W 009°10'1 8.2
2017-Nov-15 09:28N 38°41' W 009°11'0 0.2
2017-Nov-15 09:00N 38°41' W 009°11'2 1.2
2017-Nov-15 07:32N 38°42' W 009°10'0 0.0
2017-Nov-15 07:14N 38°42' W 009°10'0 0.0
2017-Nov-15 06:35N 38°42' W 009°10'0 0.0
2017-Nov-15 06:29N 38°42' W 009°10'0 0.0
2017-Nov-15 05:59N 38°42' W 009°10'0 0.0
2017-Nov-15 04:35N 38°42' W 009°10'0 0.0
2017-Nov-15 04:11N 38°42' W 009°10'0 0.0
2017-Nov-15 03:53N 38°42' W 009°10'0 0.0
2017-Nov-15 03:26N 38°42' W 009°10'3 3.1
2017-Nov-15 02:34N 38°41' W 009°13'0 1.4
2017-Nov-15 02:31N 38°41' W 009°13'1 2.2
2017-Nov-15 02:00N 38°41' W 009°14'1 1.3
2017-Nov-15 01:28N 38°41' W 009°13'3 6.2
2017-Nov-15 00:56N 38°42' W 009°09'0 0.1
2017-Nov-14 23:04N 38°42' W 009°10'0 0.0
2017-Nov-14 22:58N 38°42' W 009°10'0 0.0
2017-Nov-14 22:25N 38°42' W 009°10'0 0.0
2017-Nov-14 20:45N 38°42' W 009°10'0 0.6
2017-Nov-14 20:25N 38°42' W 009°10'0 0.1
2017-Nov-14 19:49N 38°42' W 009°10'1 1.3
2017-Nov-14 19:20N 38°42' W 009°09'1 4.1
2017-Nov-14 19:00N 38°40' W 009°09'1 1.7
2017-Nov-14 18:30N 38°41' W 009°08'2 0.9
2017-Nov-14 16:44N 38°42' W 009°10'0 0.0
2017-Nov-14 16:29N 38°42' W 009°10'0 0.4
2017-Nov-14 16:00N 38°42' W 009°09'2 1.5
2017-Nov-14 14:54N 38°40' W 009°09'1 2.1
2017-Nov-14 14:26N 38°41' W 009°09'1 2.9
2017-Nov-14 14:00N 38°42' W 009°10'1 0.2
2017-Nov-14 11:37N 38°42' W 009°10'0 0.0
2017-Nov-14 11:13N 38°42' W 009°10'0 0.0
2017-Nov-14 10:40N 38°42' W 009°10'0 0.3
2017-Nov-14 10:11N 38°42' W 009°09'2 2.0
2017-Nov-14 09:05N 38°41' W 009°12'0 2.4
2017-Nov-14 09:00N 38°41' W 009°11'2 2.8
2017-Nov-14 08:16N 38°42' W 009°09'0 0.9
2017-Nov-14 07:47N 38°42' W 009°10'0 1.0
2017-Nov-14 07:30N 38°42' W 009°10'0 0.7
2017-Nov-14 07:00N 38°42' W 009°10'0 0.2
2017-Nov-14 06:26N 38°42' W 009°10'0 0.0
2017-Nov-14 05:35N 38°42' W 009°10'0 0.0
2017-Nov-14 05:08N 38°42' W 009°10'0 0.0
2017-Nov-14 04:59N 38°42' W 009°10'0 0.0
2017-Nov-14 04:11N 38°42' W 009°10'0 0.0
2017-Nov-14 03:47N 38°42' W 009°10'0 0.0
2017-Nov-14 03:17N 38°42' W 009°10'0 0.0
2017-Nov-14 02:59N 38°42' W 009°10'0 0.0
2017-Nov-14 02:29N 38°42' W 009°10'0 0.0
2017-Nov-14 01:59N 38°42' W 009°10'0 0.0
2017-Nov-14 01:23N 38°42' W 009°10'0 0.0
2017-Nov-14 00:53N 38°42' W 009°10'0 0.0
2017-Nov-14 00:29N 38°42' W 009°10'0 0.0
2017-Nov-13 23:59N 38°42' W 009°10'0 0.0
2017-Nov-13 23:29N 38°42' W 009°10'0 0.0
2017-Nov-13 22:53N 38°42' W 009°10'0 0.0
2017-Nov-13 22:29N 38°42' W 009°10'0 0.0
2017-Nov-13 21:53N 38°42' W 009°10'4 0.2
2017-Nov-13 01:57N 38°41' W 009°14'4 2.7
2017-Nov-13 00:38N 38°42' W 009°10'0 0.0
2017-Nov-13 00:26N 38°42' W 009°10'0 0.1
2017-Nov-13 00:00N 38°42' W 009°10'3 4.2
2017-Nov-12 23:16N 38°44' W 009°06'2 5.4
2017-Nov-12 22:56N 38°42' W 009°07'2 0.6
2017-Nov-12 19:57N 38°42' W 009°10'0 0.0
2017-Nov-12 19:30N 38°42' W 009°10'0 0.3
2017-Nov-12 18:55N 38°42' W 009°09'0 0.4
2017-Nov-12 17:46N 38°42' W 009°10'0 0.7
2017-Nov-12 17:21N 38°42' W 009°10'0 0.0
2017-Nov-12 16:51N 38°42' W 009°10'1 4.1
2017-Nov-12 16:30N 38°41' W 009°11'1 2.7
2017-Nov-12 16:00N 38°41' W 009°13'0 0.5
2017-Nov-12 15:30N 38°41' W 009°12'3 1.9
2017-Nov-12 14:07N 38°42' W 009°10'0 0.0
2017-Nov-12 13:46N 38°42' W 009°10'0 0.0
2017-Nov-12 09:55N 38°42' W 009°10'0 0.0
2017-Nov-12 09:25N 38°42' W 009°10'0 1.1
2017-Nov-12 08:59N 38°42' W 009°10'3 6.1
2017-Nov-12 08:29N 38°41' W 009°14'2 4.1
2017-Nov-12 07:59N 38°41' W 009°11'1 0.9
2017-Nov-12 06:21N 38°42' W 009°10'0 0.0
2017-Nov-12 05:54N 38°42' W 009°10'0 0.0
2017-Nov-12 05:24N 38°42' W 009°10'0 0.0
2017-Nov-12 04:54N 38°42' W 009°10'0 0.0
2017-Nov-12 04:30N 38°42' W 009°10'0 0.0
2017-Nov-12 03:54N 38°42' W 009°10'0 0.0
2017-Nov-12 02:12N 38°42' W 009°10'0 0.0
2017-Nov-12 01:06N 38°42' W 009°10'0 0.1
2017-Nov-12 01:00N 38°42' W 009°10'0 0.0
2017-Nov-12 00:21N 38°42' W 009°10'0 0.0
2017-Nov-11 23:12N 38°42' W 009°10'0 0.0
2017-Nov-11 22:51N 38°42' W 009°10'0 0.0
2017-Nov-11 22:27N 38°42' W 009°10'0 0.0
2017-Nov-11 20:39N 38°42' W 009°10'0 0.0
2017-Nov-11 17:42N 38°42' W 009°10'0 0.0
2017-Nov-11 17:27N 38°42' W 009°10'0 0.0
2017-Nov-11 16:57N 38°42' W 009°10'0 0.0
2017-Nov-11 16:24N 38°42' W 009°10'0 0.0
2017-Nov-11 16:00N 38°42' W 009°10'0 0.0
2017-Nov-11 15:00N 38°42' W 009°10'0 0.0
2017-Nov-11 13:54N 38°42' W 009°10'0 0.0
2017-Nov-11 11:27N 38°42' W 009°10'2 3.9
2017-Nov-11 11:00N 38°42' W 009°07'2 3.5
2017-Nov-11 10:30N 38°44' W 009°06'3 2.0
2017-Nov-11 08:53N 38°42' W 009°10'0 0.0
2017-Nov-11 06:44N 38°42' W 009°10'0 0.0
2017-Nov-11 06:30N 38°42' W 009°10'0 0.2
2017-Nov-11 05:48N 38°42' W 009°10'0 0.2
2017-Nov-11 05:13N 38°42' W 009°10'0 0.0
2017-Nov-11 04:58N 38°42' W 009°10'0 0.0
2017-Nov-11 03:55N 38°42' W 009°10'0 0.0
2017-Nov-11 03:07N 38°42' W 009°10'0 0.0
2017-Nov-11 02:07N 38°42' W 009°10'0 0.0
2017-Nov-11 01:58N 38°42' W 009°10'0 0.0
2017-Nov-11 01:25N 38°42' W 009°10'0 0.0
2017-Nov-11 00:55N 38°42' W 009°10'0 0.0
2017-Nov-11 00:19N 38°42' W 009°10'0 0.0
2017-Nov-10 21:48N 38°42' W 009°10'3 5.0
2017-Nov-10 21:16N 38°43' W 009°07'1 4.8
2017-Nov-10 21:00N 38°42' W 009°07'2 0.9
2017-Nov-10 19:07N 38°42' W 009°10'0 0.0
2017-Nov-10 18:13N 38°42' W 009°10'0 0.0
2017-Nov-10 17:43N 38°42' W 009°10'0 0.0
2017-Nov-10 15:43N 38°42' W 009°10'0 0.0
2017-Nov-10 15:16N 38°42' W 009°10'0 0.0
2017-Nov-10 14:40N 38°42' W 009°10'0 0.0
2017-Nov-10 14:28N 38°42' W 009°10'0 0.0
2017-Nov-10 11:13N 38°42' W 009°10'0 0.0
2017-Nov-10 10:22N 38°42' W 009°10'0 0.0
2017-Nov-10 09:54N 38°42' W 009°10'0 0.9
2017-Nov-10 09:22N 38°42' W 009°10'1 1.5
2017-Nov-10 09:00N 38°42' W 009°11'1 1.4
2017-Nov-10 08:10N 38°42' W 009°09'0 0.6
2017-Nov-10 07:57N 38°42' W 009°10'0 0.1
2017-Nov-10 07:30N 38°42' W 009°10'0 0.0
2017-Nov-10 06:51N 38°42' W 009°10'0 0.0
2017-Nov-10 05:18N 38°42' W 009°10'0 0.0
2017-Nov-10 02:33N 38°42' W 009°10'0 0.0
2017-Nov-10 02:12N 38°42' W 009°10'0 0.0
2017-Nov-10 01:03N 38°42' W 009°10'0 0.1
2017-Nov-10 01:00N 38°42' W 009°10'  
Track history (hours):
 
Tides and Currents Weather Stations Pressure Air Temp Water Temp Dewpoint Dewpoint Depression Visibility Wind Speed Wind Dir Waves Ship Positions

Svitzer Viana

Last reported at 2017-Nov-20 00:25 UTC. Time now 2017-Nov-22 11:18 UTC.
Position N 38°42' W 009°10'.

Length 28 m; draft 3.8 m.

Type: Tug. MMSI: 263602568.

Date/timePositionNaut miles runAvg speedWind from/ knotsBaromVisibWave heightAir tempDewpointWater temp
2017-Nov-20 00:25N 38°42' W 009°10'0 0.0
2017-Nov-19 23:58N 38°42' W 009°10'0 0.0
2017-Nov-19 23:25N 38°42' W 009°10'0 0.0
2017-Nov-19 22:58N 38°42' W 009°10'0 0.0
2017-Nov-19 22:25N 38°42' W 009°10'0 0.0
2017-Nov-19 21:58N 38°42' W 009°10'0 0.0
2017-Nov-19 20:46N 38°42' W 009°10'0 0.6
2017-Nov-19 19:53N 38°42' W 009°10'0 0.4
2017-Nov-19 18:37N 38°42' W 009°10'0 0.0
2017-Nov-19 16:01N 38°42' W 009°10'0 0.0
2017-Nov-19 14:10N 38°42' W 009°10'0 0.0
2017-Nov-19 13:13N 38°42' W 009°10'0 0.0
2017-Nov-19 12:55N 38°42' W 009°10'0 0.0
2017-Nov-19 12:25N 38°42' W 009°10'0 0.0
2017-Nov-19 11:55N 38°42' W 009°10'0 0.0
2017-Nov-19 11:11N 38°42' W 009°10'1 7.9
2017-Nov-19 11:00N 38°41' W 009°08'3 6.5
2017-Nov-19 10:30N 38°41' W 009°04'0 0.6
2017-Nov-19 10:00N 38°41' W 009°04'4 7.6
2017-Nov-19 09:26N 38°42' W 009°10'0 0.0
2017-Nov-19 07:23N 38°42' W 009°10'0 0.0
2017-Nov-19 06:56N 38°42' W 009°10'0 0.0
2017-Nov-19 05:44N 38°42' W 009°10'0 0.0
2017-Nov-19 04:53N 38°42' W 009°10'0 0.0
2017-Nov-19 04:29N 38°42' W 009°10'0 0.0
2017-Nov-19 03:47N 38°42' W 009°10'0 0.0
2017-Nov-19 03:14N 38°42' W 009°10'0 0.0
2017-Nov-19 02:56N 38°42' W 009°10'0 0.0
2017-Nov-19 02:20N 38°42' W 009°10'0 0.0
2017-Nov-19 01:50N 38°42' W 009°10'0 0.0
2017-Nov-19 01:14N 38°42' W 009°10'0 0.0
2017-Nov-19 00:59N 38°42' W 009°10'0 0.0
2017-Nov-19 00:29N 38°42' W 009°10'0 0.0
2017-Nov-18 23:56N 38°42' W 009°10'0 0.0
2017-Nov-18 23:14N 38°42' W 009°10'0 0.0
2017-Nov-18 22:56N 38°42' W 009°10'0 0.0
2017-Nov-18 22:08N 38°42' W 009°10'0 0.0
2017-Nov-18 21:59N 38°42' W 009°10'0 0.0
2017-Nov-18 21:26N 38°42' W 009°10'0 0.0
2017-Nov-18 20:53N 38°42' W 009°10'0 0.0
2017-Nov-18 20:20N 38°42' W 009°10'0 0.0
2017-Nov-18 18:20N 38°42' W 009°10'0 0.0
2017-Nov-18 17:50N 38°42' W 009°10'0 0.0
2017-Nov-18 16:53N 38°42' W 009°10'0 0.0
2017-Nov-18 16:29N 38°42' W 009°10'0 0.0
2017-Nov-18 15:54N 38°42' W 009°10'2 1.5
2017-Nov-18 14:40N 38°41' W 009°11'0 1.2
2017-Nov-18 14:21N 38°41' W 009°11'0 0.1
2017-Nov-18 13:58N 38°41' W 009°11'2 1.6
2017-Nov-18 12:53N 38°42' W 009°10'0 0.0
2017-Nov-18 12:29N 38°42' W 009°10'0 0.0
2017-Nov-18 11:35N 38°42' W 009°10'0 0.0
2017-Nov-18 11:05N 38°42' W 009°10'0 0.0
2017-Nov-18 10:59N 38°42' W 009°10'0 0.0
2017-Nov-18 10:17N 38°42' W 009°10'0 0.0
2017-Nov-18 09:56N 38°42' W 009°10'0 0.0
2017-Nov-18 09:23N 38°42' W 009°10'0 0.0
2017-Nov-18 08:59N 38°42' W 009°10'0 0.0
2017-Nov-18 08:29N 38°42' W 009°10'0 0.0
2017-Nov-18 07:59N 38°42' W 009°10'0 0.0
2017-Nov-18 07:23N 38°42' W 009°10'0 0.0
2017-Nov-18 06:59N 38°42' W 009°10'0 0.0
2017-Nov-18 06:14N 38°42' W 009°10'0 0.0
2017-Nov-18 05:53N 38°42' W 009°10'0 0.0
2017-Nov-18 05:20N 38°42' W 009°10'0 0.0
2017-Nov-18 04:53N 38°42' W 009°10'0 0.0
2017-Nov-18 04:23N 38°42' W 009°10'0 0.0
2017-Nov-18 03:41N 38°42' W 009°10'2 9.9
2017-Nov-18 03:30N 38°41' W 009°08'3 4.7
2017-Nov-18 02:49N 38°41' W 009°04'0 0.4
2017-Nov-18 02:30N 38°41' W 009°04'2 4.1
2017-Nov-18 02:00N 38°41' W 009°06'3 4.3
2017-Nov-18 01:24N 38°42' W 009°09'0 0.6
2017-Nov-18 00:54N 38°42' W 009°10'0 0.0
2017-Nov-17 20:36N 38°42' W 009°10'0 0.0
2017-Nov-17 19:06N 38°42' W 009°10'0 0.0
2017-Nov-17 18:48N 38°42' W 009°10'0 0.0
2017-Nov-17 18:18N 38°42' W 009°10'0 0.0
2017-Nov-17 17:48N 38°42' W 009°10'0 0.0
2017-Nov-17 17:06N 38°42' W 009°10'0 0.0
2017-Nov-17 17:00N 38°42' W 009°10'0 0.0
2017-Nov-17 15:42N 38°42' W 009°10'0 0.0
2017-Nov-17 13:54N 38°42' W 009°10'0 0.0
2017-Nov-17 08:48N 38°42' W 009°10'0 0.0
2017-Nov-17 07:24N 38°42' W 009°10'0 0.2
2017-Nov-17 06:56N 38°42' W 009°09'3 5.7
2017-Nov-17 06:28N 38°43' W 009°07'1 1.3
2017-Nov-17 05:56N 38°43' W 009°07'1 3.0
2017-Nov-17 05:29N 38°42' W 009°09'1 0.2
2017-Nov-17 00:42N 38°42' W 009°10'2 8.5
2017-Nov-17 00:30N 38°41' W 009°11'0 0.3
2017-Nov-16 23:55N 38°41' W 009°11'2 0.6
2017-Nov-16 20:48N 38°42' W 009°10'0 0.0
2017-Nov-16 20:18N 38°42' W 009°10'0 0.0
2017-Nov-16 18:54N 38°42' W 009°10'0 0.0
2017-Nov-16 16:15N 38°42' W 009°10'0 0.0
2017-Nov-16 15:48N 38°42' W 009°10'0 0.0
2017-Nov-16 15:00N 38°42' W 009°10'0 0.0
2017-Nov-16 13:54N 38°42' W 009°10'0 0.0
2017-Nov-16 13:21N 38°42' W 009°10'2 6.9
2017-Nov-16 13:00N 38°43' W 009°07'0 0.9
2017-Nov-16 12:29N 38°43' W 009°06'2 3.5
2017-Nov-16 12:00N 38°42' W 009°08'1 0.3
2017-Nov-16 08:18N 38°42' W 009°10'0 0.0
2017-Nov-16 06:36N 38°42' W 009°10'0 0.1
2017-Nov-16 06:30N 38°42' W 009°10'0 0.0
2017-Nov-16 05:48N 38°42' W 009°10'0 0.0
2017-Nov-16 04:48N 38°42' W 009°10'0 0.0
2017-Nov-16 04:21N 38°42' W 009°10'0 0.0
2017-Nov-16 03:54N 38°42' W 009°10'0 0.0
2017-Nov-16 03:21N 38°42' W 009°10'0 0.0
2017-Nov-16 03:00N 38°42' W 009°10'0 0.0
2017-Nov-16 01:12N 38°42' W 009°10'0 0.0
2017-Nov-16 01:00N 38°42' W 009°10'0 0.0
2017-Nov-15 19:30N 38°42' W 009°10'0 0.0
2017-Nov-15 13:42N 38°42' W 009°10'0 0.0
2017-Nov-15 13:24N 38°42' W 009°10'0 0.4
2017-Nov-15 12:55N 38°42' W 009°10'2 3.8
2017-Nov-15 12:17N 38°41' W 009°12'0 0.4
2017-Nov-15 11:58N 38°41' W 009°12'2 4.4
2017-Nov-15 11:29N 38°42' W 009°10'0 0.7
2017-Nov-15 10:58N 38°42' W 009°10'0 0.3
2017-Nov-15 09:39N 38°42' W 009°10'1 8.2
2017-Nov-15 09:28N 38°41' W 009°11'0 0.2
2017-Nov-15 09:00N 38°41' W 009°11'2 1.2
2017-Nov-15 07:32N 38°42' W 009°10'0 0.0
2017-Nov-15 07:14N 38°42' W 009°10'0 0.0
2017-Nov-15 06:35N 38°42' W 009°10'0 0.0
2017-Nov-15 06:29N 38°42' W 009°10'0 0.0
2017-Nov-15 05:59N 38°42' W 009°10'0 0.0
2017-Nov-15 04:35N 38°42' W 009°10'0 0.0
2017-Nov-15 04:11N 38°42' W 009°10'0 0.0
2017-Nov-15 03:53N 38°42' W 009°10'0 0.0
2017-Nov-15 03:26N 38°42' W 009°10'3 3.1
2017-Nov-15 02:34N 38°41' W 009°13'0 1.4
2017-Nov-15 02:31N 38°41' W 009°13'1 2.2
2017-Nov-15 02:00N 38°41' W 009°14'1 1.3
2017-Nov-15 01:28N 38°41' W 009°13'3 6.2
2017-Nov-15 00:56N 38°42' W 009°09'0 0.1
2017-Nov-14 23:04N 38°42' W 009°10'0 0.0
2017-Nov-14 22:58N 38°42' W 009°10'0 0.0
2017-Nov-14 22:25N 38°42' W 009°10'0 0.0
2017-Nov-14 20:45N 38°42' W 009°10'0 0.6
2017-Nov-14 20:25N 38°42' W 009°10'0 0.1
2017-Nov-14 19:49N 38°42' W 009°10'1 1.3
2017-Nov-14 19:20N 38°42' W 009°09'1 4.1
2017-Nov-14 19:00N 38°40' W 009°09'1 1.7
2017-Nov-14 18:30N 38°41' W 009°08'2 0.9
2017-Nov-14 16:44N 38°42' W 009°10'0 0.0
2017-Nov-14 16:29N 38°42' W 009°10'0 0.4
2017-Nov-14 16:00N 38°42' W 009°09'2 1.5
2017-Nov-14 14:54N 38°40' W 009°09'1 2.1
2017-Nov-14 14:26N 38°41' W 009°09'1 2.9
2017-Nov-14 14:00N 38°42' W 009°10'1 0.2
2017-Nov-14 11:37N 38°42' W 009°10'0 0.0
2017-Nov-14 11:13N 38°42' W 009°10'0 0.0
2017-Nov-14 10:40N 38°42' W 009°10'0 0.3
2017-Nov-14 10:11N 38°42' W 009°09'2 2.0
2017-Nov-14 09:05N 38°41' W 009°12'0 2.4
2017-Nov-14 09:00N 38°41' W 009°11'2 2.8
2017-Nov-14 08:16N 38°42' W 009°09'0 0.9
2017-Nov-14 07:47N 38°42' W 009°10'0 1.0
2017-Nov-14 07:30N 38°42' W 009°10'0 0.7
2017-Nov-14 07:00N 38°42' W 009°10'0 0.2
2017-Nov-14 06:26N 38°42' W 009°10'0 0.0
2017-Nov-14 05:35N 38°42' W 009°10'0 0.0
2017-Nov-14 05:08N 38°42' W 009°10'0 0.0
2017-Nov-14 04:59N 38°42' W 009°10'0 0.0
2017-Nov-14 04:11N 38°42' W 009°10'0 0.0
2017-Nov-14 03:47N 38°42' W 009°10'0 0.0
2017-Nov-14 03:17N 38°42' W 009°10'0 0.0
2017-Nov-14 02:59N 38°42' W 009°10'0 0.0
2017-Nov-14 02:29N 38°42' W 009°10'0 0.0
2017-Nov-14 01:59N 38°42' W 009°10'0 0.0
2017-Nov-14 01:23N 38°42' W 009°10'0 0.0
2017-Nov-14 00:53N 38°42' W 009°10'0 0.0
2017-Nov-14 00:29N 38°42' W 009°10'0 0.0
2017-Nov-13 23:59N 38°42' W 009°10'0 0.0
2017-Nov-13 23:29N 38°42' W 009°10'0 0.0
2017-Nov-13 22:53N 38°42' W 009°10'0 0.0
2017-Nov-13 22:29N 38°42' W 009°10'0 0.0
2017-Nov-13 21:53N 38°42' W 009°10'4 0.2
2017-Nov-13 01:57N 38°41' W 009°14'4 2.7
2017-Nov-13 00:38N 38°42' W 009°10'0 0.0
2017-Nov-13 00:26N 38°42' W 009°10'0 0.1
2017-Nov-13 00:00N 38°42' W 009°10'3 4.2
2017-Nov-12 23:16N 38°44' W 009°06'2 5.4
2017-Nov-12 22:56N 38°42' W 009°07'2 0.6
2017-Nov-12 19:57N 38°42' W 009°10'0 0.0
2017-Nov-12 19:30N 38°42' W 009°10'0 0.3
2017-Nov-12 18:55N 38°42' W 009°09'0 0.4
2017-Nov-12 17:46N 38°42' W 009°10'0 0.7
2017-Nov-12 17:21N 38°42' W 009°10'0 0.0
2017-Nov-12 16:51N 38°42' W 009°10'1 4.1
2017-Nov-12 16:30N 38°41' W 009°11'1 2.7
2017-Nov-12 16:00N 38°41' W 009°13'0 0.5
2017-Nov-12 15:30N 38°41' W 009°12'3 1.9
2017-Nov-12 14:07N 38°42' W 009°10'0 0.0
2017-Nov-12 13:46N 38°42' W 009°10'0 0.0
2017-Nov-12 09:55N 38°42' W 009°10'0 0.0
2017-Nov-12 09:25N 38°42' W 009°10'0 1.1
2017-Nov-12 08:59N 38°42' W 009°10'3 6.1
2017-Nov-12 08:29N 38°41' W 009°14'2 4.1
2017-Nov-12 07:59N 38°41' W 009°11'1 0.9
2017-Nov-12 06:21N 38°42' W 009°10'0 0.0
2017-Nov-12 05:54N 38°42' W 009°10'0 0.0
2017-Nov-12 05:24N 38°42' W 009°10'0 0.0
2017-Nov-12 04:54N 38°42' W 009°10'0 0.0
2017-Nov-12 04:30N 38°42' W 009°10'0 0.0
2017-Nov-12 03:54N 38°42' W 009°10'0 0.0
2017-Nov-12 02:12N 38°42' W 009°10'0 0.0
2017-Nov-12 01:06N 38°42' W 009°10'0 0.1
2017-Nov-12 01:00N 38°42' W 009°10'0 0.0
2017-Nov-12 00:21N 38°42' W 009°10'0 0.0
2017-Nov-11 23:12N 38°42' W 009°10'0 0.0
2017-Nov-11 22:51N 38°42' W 009°10'0 0.0
2017-Nov-11 22:27N 38°42' W 009°10'0 0.0
2017-Nov-11 20:39N 38°42' W 009°10'0 0.0
2017-Nov-11 17:42N 38°42' W 009°10'0 0.0
2017-Nov-11 17:27N 38°42' W 009°10'0 0.0
2017-Nov-11 16:57N 38°42' W 009°10'0 0.0
2017-Nov-11 16:24N 38°42' W 009°10'0 0.0
2017-Nov-11 16:00N 38°42' W 009°10'0 0.0
2017-Nov-11 15:00N 38°42' W 009°10'0 0.0
2017-Nov-11 13:54N 38°42' W 009°10'0 0.0
2017-Nov-11 11:27N 38°42' W 009°10'2 3.9
2017-Nov-11 11:00N 38°42' W 009°07'2 3.5
2017-Nov-11 10:30N 38°44' W 009°06'3 2.0
2017-Nov-11 08:53N 38°42' W 009°10'0 0.0
2017-Nov-11 06:44N 38°42' W 009°10'0 0.0
2017-Nov-11 06:30N 38°42' W 009°10'0 0.2
2017-Nov-11 05:48N 38°42' W 009°10'0 0.2
2017-Nov-11 05:13N 38°42' W 009°10'0 0.0
2017-Nov-11 04:58N 38°42' W 009°10'0 0.0
2017-Nov-11 03:55N 38°42' W 009°10'0 0.0
2017-Nov-11 03:07N 38°42' W 009°10'0 0.0
2017-Nov-11 02:07N 38°42' W 009°10'0 0.0
2017-Nov-11 01:58N 38°42' W 009°10'0 0.0
2017-Nov-11 01:25N 38°42' W 009°10'0 0.0
2017-Nov-11 00:55N 38°42' W 009°10'0 0.0
2017-Nov-11 00:19N 38°42' W 009°10'0 0.0
2017-Nov-10 21:48N 38°42' W 009°10'3 5.0
2017-Nov-10 21:16N 38°43' W 009°07'1 4.8
2017-Nov-10 21:00N 38°42' W 009°07'2 0.9
2017-Nov-10 19:07N 38°42' W 009°10'0 0.0
2017-Nov-10 18:13N 38°42' W 009°10'0 0.0
2017-Nov-10 17:43N 38°42' W 009°10'0 0.0
2017-Nov-10 15:43N 38°42' W 009°10'0 0.0
2017-Nov-10 15:16N 38°42' W 009°10'0 0.0
2017-Nov-10 14:40N 38°42' W 009°10'0 0.0
2017-Nov-10 14:28N 38°42' W 009°10'0 0.0
2017-Nov-10 11:13N 38°42' W 009°10'0 0.0
2017-Nov-10 10:22N 38°42' W 009°10'0 0.0
2017-Nov-10 09:54N 38°42' W 009°10'0 0.9
2017-Nov-10 09:22N 38°42' W 009°10'1 1.5
2017-Nov-10 09:00N 38°42' W 009°11'1 1.4
2017-Nov-10 08:10N 38°42' W 009°09'0 0.6
2017-Nov-10 07:57N 38°42' W 009°10'0 0.1
2017-Nov-10 07:30N 38°42' W 009°10'0 0.0
2017-Nov-10 06:51N 38°42' W 009°10'0 0.0
2017-Nov-10 05:18N 38°42' W 009°10'0 0.0
2017-Nov-10 02:33N 38°42' W 009°10'0 0.0
2017-Nov-10 02:12N 38°42' W 009°10'0 0.0
2017-Nov-10 01:03N 38°42' W 009°10'0 0.1
2017-Nov-10 01:00N 38°42' W 009°10'  

Dump ship's entire track history